Terminal Aerodrome Forecast
Issued by NWS Omaha/Valley, NE

Home | Current Version | Previous Version | Text Only | Print | Product List | Glossary On
Versions: 1 2 3 4 5 6 7 8 9 10 11 12 13 14 15 16 17 18 19 20 21 22 23 24 25 26 27 28 29 30 31 32 33
000
FTUS43 KOAX 020520
TAFLNK
TAF
KLNK 020520Z 0206/0306 18008KT P6SM FEW120 BKN250
     FM021400 21008KT P6SM SCT100
     FM021800 22012KT P6SM SCT050
     FM030200 VRB05KT P6SM BKN070=

USA.gov is the U.S. government's official web portal to all federal, state and local government web resources and services.